sensor_id;sensor_type;location;lat;lon;timestamp;pressure;altitude;pressure_sealevel;temperature;humidity
21879;BME280;27908;42.708;23.278;2023-04-08T00:02:15;63063.69;;;5.42;93.94
21879;BME280;27908;42.708;23.278;2023-04-08T00:04:40;63064.19;;;5.42;94.02
21879;BME280;27908;42.708;23.278;2023-04-08T00:07:06;63079.94;;;5.48;93.71
21879;BME280;27908;42.708;23.278;2023-04-08T00:09:32;63069.88;;;5.53;93.31
21879;BME280;27908;42.708;23.278;2023-04-08T00:11:57;63112.81;;;5.50;93.13
21879;BME280;27908;42.708;23.278;2023-04-08T00:14:23;63046.97;;;5.38;93.18
21879;BME280;27908;42.708;23.278;2023-04-08T00:16:48;63064.38;;;5.57;92.66
21879;BME280;27908;42.708;23.278;2023-04-08T00:19:14;63083.13;;;5.61;93.15
21879;BME280;27908;42.708;23.278;2023-04-08T00:21:39;63059.88;;;5.60;92.83
21879;BME280;27908;42.708;23.278;2023-04-08T00:24:05;63050.69;;;5.54;93.04
21879;BME280;27908;42.708;23.278;2023-04-08T00:26:31;63044.59;;;5.50;93.48
21879;BME280;27908;42.708;23.278;2023-04-08T00:28:56;63085.00;;;5.50;93.55
21879;BME280;27908;42.708;23.278;2023-04-08T00:31:22;63065.22;;;5.43;95.84
21879;BME280;27908;42.708;23.278;2023-04-08T00:33:47;63061.19;;;5.44;96.23
21879;BME280;27908;42.708;23.278;2023-04-08T00:36:13;63076.84;;;5.45;95.34
21879;BME280;27908;42.708;23.278;2023-04-08T00:38:38;63009.38;;;5.21;95.29
21879;BME280;27908;42.708;23.278;2023-04-08T00:41:04;63030.41;;;5.07;96.51
21879;BME280;27908;42.708;23.278;2023-04-08T00:43:29;63010.38;;;5.20;97.20
21879;BME280;27908;42.708;23.278;2023-04-08T00:45:55;63013.78;;;5.11;97.25
21879;BME280;27908;42.708;23.278;2023-04-08T00:48:20;63046.81;;;5.26;96.84
21879;BME280;27908;42.708;23.278;2023-04-08T00:50:46;63051.88;;;5.28;96.86
21879;BME280;27908;42.708;23.278;2023-04-08T00:53:16;63023.47;;;5.18;98.03
21879;BME280;27908;42.708;23.278;2023-04-08T00:55:42;63022.31;;;5.07;98.86
21879;BME280;27908;42.708;23.278;2023-04-08T00:58:08;63008.09;;;5.00;98.47
21879;BME280;27908;42.708;23.278;2023-04-08T01:00:35;63029.88;;;5.07;98.75
21879;BME280;27908;42.708;23.278;2023-04-08T01:03:13;63028.25;;;4.98;97.12
21879;BME280;27908;42.708;23.278;2023-04-08T01:05:51;63026.22;;;4.96;96.27
21879;BME280;27908;42.708;23.278;2023-04-08T01:08:21;62983.66;;;4.84;97.96
21879;BME280;27908;42.708;23.278;2023-04-08T01:10:50;62985.25;;;4.91;96.16
21879;BME280;27908;42.708;23.278;2023-04-08T01:13:19;62971.00;;;4.43;96.09
21879;BME280;27908;42.708;23.278;2023-04-08T01:15:47;62983.63;;;4.82;96.25
21879;BME280;27908;42.708;23.278;2023-04-08T01:18:14;62998.78;;;4.82;97.32
21879;BME280;27908;42.708;23.278;2023-04-08T01:20:42;62952.25;;;4.76;96.58
21879;BME280;27908;42.708;23.278;2023-04-08T01:25:38;62986.38;;;4.99;97.14
21879;BME280;27908;42.708;23.278;2023-04-08T01:28:10;63051.13;;;5.08;96.45
21879;BME280;27908;42.708;23.278;2023-04-08T01:30:40;63037.47;;;5.07;96.56
21879;BME280;27908;42.708;23.278;2023-04-08T01:33:07;62980.94;;;5.08;95.83
21879;BME280;27908;42.708;23.278;2023-04-08T01:35:34;62995.41;;;4.93;95.95
21879;BME280;27908;42.708;23.278;2023-04-08T01:38:02;63023.28;;;5.03;96.35
21879;BME280;27908;42.708;23.278;2023-04-08T01:40:27;62986.81;;;4.94;97.58
21879;BME280;27908;42.708;23.278;2023-04-08T01:42:55;63004.69;;;5.09;98.10
21879;BME280;27908;42.708;23.278;2023-04-08T01:45:22;63026.88;;;5.09;97.33
21879;BME280;27908;42.708;23.278;2023-04-08T01:47:48;63019.13;;;4.94;96.52
21879;BME280;27908;42.708;23.278;2023-04-08T01:50:15;62993.81;;;4.89;96.89
21879;BME280;27908;42.708;23.278;2023-04-08T01:52:44;63004.00;;;4.96;96.64
21879;BME280;27908;42.708;23.278;2023-04-08T01:55:10;62989.25;;;4.87;96.19
21879;BME280;27908;42.708;23.278;2023-04-08T01:57:37;62997.00;;;5.02;97.76
21879;BME280;27908;42.708;23.278;2023-04-08T02:00:08;62958.09;;;4.98;98.71
21879;BME280;27908;42.708;23.278;2023-04-08T02:02:35;62977.31;;;5.02;98.52
21879;BME280;27908;42.708;23.278;2023-04-08T02:05:01;63036.38;;;5.01;98.08
21879;BME280;27908;42.708;23.278;2023-04-08T02:07:26;63000.16;;;5.10;97.57
21879;BME280;27908;42.708;23.278;2023-04-08T02:09:52;62996.63;;;5.11;96.80
21879;BME280;27908;42.708;23.278;2023-04-08T02:12:17;63017.25;;;5.04;98.29
21879;BME280;27908;42.708;23.278;2023-04-08T02:14:43;63024.34;;;5.09;97.73
21879;BME280;27908;42.708;23.278;2023-04-08T02:17:11;63009.28;;;5.14;97.14
21879;BME280;27908;42.708;23.278;2023-04-08T02:19:46;62999.06;;;5.04;99.01
21879;BME280;27908;42.708;23.278;2023-04-08T02:24:58;63028.81;;;5.01;98.81
21879;BME280;27908;42.708;23.278;2023-04-08T02:27:25;63012.13;;;4.99;98.99
21879;BME280;27908;42.708;23.278;2023-04-08T02:29:53;63021.69;;;4.96;99.20
21879;BME280;27908;42.708;23.278;2023-04-08T02:32:19;63000.03;;;5.00;98.68
21879;BME280;27908;42.708;23.278;2023-04-08T02:34:46;63014.63;;;4.97;98.45
21879;BME280;27908;42.708;23.278;2023-04-08T02:37:13;63011.50;;;4.89;99.01
21879;BME280;27908;42.708;23.278;2023-04-08T02:39:38;62993.81;;;4.89;99.20
21879;BME280;27908;42.708;23.278;2023-04-08T02:42:04;63001.44;;;4.92;99.13
21879;BME280;27908;42.708;23.278;2023-04-08T02:44:30;63008.06;;;4.98;98.70
21879;BME280;27908;42.708;23.278;2023-04-08T02:46:55;62997.91;;;4.93;99.80
21879;BME280;27908;42.708;23.278;2023-04-08T02:49:20;62983.75;;;4.92;99.25
21879;BME280;27908;42.708;23.278;2023-04-08T02:51:46;62979.31;;;4.99;99.46
21879;BME280;27908;42.708;23.278;2023-04-08T02:54:12;62999.06;;;5.04;98.88
21879;BME280;27908;42.708;23.278;2023-04-08T02:56:38;63017.31;;;5.09;98.15
21879;BME280;27908;42.708;23.278;2023-04-08T02:59:03;62992.53;;;5.05;99.32
21879;BME280;27908;42.708;23.278;2023-04-08T03:01:29;63042.97;;;5.02;100.00
21879;BME280;27908;42.708;23.278;2023-04-08T03:03:55;63025.41;;;5.12;100.00
21879;BME280;27908;42.708;23.278;2023-04-08T03:06:20;63011.25;;;5.11;100.00
21879;BME280;27908;42.708;23.278;2023-04-08T03:08:46;63039.09;;;5.16;99.97
21879;BME280;27908;42.708;23.278;2023-04-08T03:11:11;63052.25;;;5.19;100.00
21879;BME280;27908;42.708;23.278;2023-04-08T03:13:36;63073.00;;;5.19;99.85
21879;BME280;27908;42.708;23.278;2023-04-08T03:16:02;63024.84;;;5.07;99.89
21879;BME280;27908;42.708;23.278;2023-04-08T03:18:27;63033.47;;;5.10;100.00
21879;BME280;27908;42.708;23.278;2023-04-08T03:20:53;63038.53;;;5.10;100.00
21879;BME280;27908;42.708;23.278;2023-04-08T03:23:18;63015.81;;;5.13;100.00
21879;BME280;27908;42.708;23.278;2023-04-08T03:25:44;62994.13;;;5.14;100.00
21879;BME280;27908;42.708;23.278;2023-04-08T03:28:09;63044.63;;;5.14;100.00
21879;BME280;27908;42.708;23.278;2023-04-08T03:30:35;63047.56;;;5.07;100.00
21879;BME280;27908;42.708;23.278;2023-04-08T03:33:00;63056.31;;;5.20;100.00
21879;BME280;27908;42.708;23.278;2023-04-08T03:35:27;63065.94;;;5.22;100.00
21879;BME280;27908;42.708;23.278;2023-04-08T03:37:53;63082.66;;;5.26;100.00
21879;BME280;27908;42.708;23.278;2023-04-08T03:40:19;63037.63;;;5.19;100.00
21879;BME280;27908;42.708;23.278;2023-04-08T03:42:45;63052.41;;;5.31;99.83
21879;BME280;27908;42.708;23.278;2023-04-08T03:45:10;63069.59;;;5.30;99.91
21879;BME280;27908;42.708;23.278;2023-04-08T03:47:36;63029.53;;;5.19;100.00
21879;BME280;27908;42.708;23.278;2023-04-08T03:50:01;62992.53;;;5.05;100.00
21879;BME280;27908;42.708;23.278;2023-04-08T03:52:27;63023.19;;;4.95;100.00
21879;BME280;27908;42.708;23.278;2023-04-08T03:54:52;63033.31;;;4.98;100.00
21879;BME280;27908;42.708;23.278;2023-04-08T03:57:18;63034.94;;;5.07;100.00
21879;BME280;27908;42.708;23.278;2023-04-08T03:59:43;63012.09;;;4.97;100.00
21879;BME280;27908;42.708;23.278;2023-04-08T04:02:08;63008.41;;;4.86;100.00
21879;BME280;27908;42.708;23.278;2023-04-08T04:04:34;62961.00;;;4.87;100.00
21879;BME280;27908;42.708;23.278;2023-04-08T04:07:01;62994.78;;;4.85;100.00
21879;BME280;27908;42.708;23.278;2023-04-08T04:09:26;62999.19;;;4.75;100.00
21879;BME280;27908;42.708;23.278;2023-04-08T04:11:52;62907.56;;;4.52;100.00
21879;BME280;27908;42.708;23.278;2023-04-08T04:14:17;62978.16;;;4.89;100.00
21879;BME280;27908;42.708;23.278;2023-04-08T04:16:42;62974.13;;;4.87;100.00
21879;BME280;27908;42.708;23.278;2023-04-08T04:19:08;63049.44;;;4.96;100.00
21879;BME280;27908;42.708;23.278;2023-04-08T04:21:33;62987.38;;;4.97;100.00
21879;BME280;27908;42.708;23.278;2023-04-08T04:23:59;62987.88;;;4.98;100.00
21879;BME280;27908;42.708;23.278;2023-04-08T04:26:24;63026.34;;;5.06;100.00
21879;BME280;27908;42.708;23.278;2023-04-08T04:28:50;63029.94;;;5.09;100.00
21879;BME280;27908;42.708;23.278;2023-04-08T04:31:20;63033.50;;;5.13;100.00
21879;BME280;27908;42.708;23.278;2023-04-08T04:33:46;63026.28;;;5.01;100.00
21879;BME280;27908;42.708;23.278;2023-04-08T04:36:12;62993.84;;;4.92;100.00
21879;BME280;27908;42.708;23.278;2023-04-08T04:38:37;63011.00;;;4.91;100.00
21879;BME280;27908;42.708;23.278;2023-04-08T04:41:03;62995.53;;;5.03;100.00
21879;BME280;27908;42.708;23.278;2023-04-08T04:43:28;62990.41;;;4.98;100.00
21879;BME280;27908;42.708;23.278;2023-04-08T04:45:54;62983.25;;;4.91;100.00
21879;BME280;27908;42.708;23.278;2023-04-08T04:48:20;62982.84;;;5.00;100.00
21879;BME280;27908;42.708;23.278;2023-04-08T04:50:56;62970.03;;;4.83;100.00
21879;BME280;27908;42.708;23.278;2023-04-08T04:53:22;62969.25;;;5.02;100.00
21879;BME280;27908;42.708;23.278;2023-04-08T04:55:47;63016.13;;;4.96;100.00
21879;BME280;27908;42.708;23.278;2023-04-08T04:58:14;63003.56;;;5.01;100.00
21879;BME280;27908;42.708;23.278;2023-04-08T05:00:39;62983.09;;;4.79;100.00
21879;BME280;27908;42.708;23.278;2023-04-08T05:03:05;62978.63;;;4.84;100.00
21879;BME280;27908;42.708;23.278;2023-04-08T05:05:30;63007.72;;;5.10;100.00
21879;BME280;27908;42.708;23.278;2023-04-08T05:07:56;62999.56;;;5.04;100.00
21879;BME280;27908;42.708;23.278;2023-04-08T05:10:21;62985.00;;;5.10;100.00
21879;BME280;27908;42.708;23.278;2023-04-08T05:12:47;63061.03;;;5.32;100.00
21879;BME280;27908;42.708;23.278;2023-04-08T05:15:12;63031.84;;;5.40;99.84
21879;BME280;27908;42.708;23.278;2023-04-08T05:17:38;63078.41;;;5.49;99.09
21879;BME280;27908;42.708;23.278;2023-04-08T05:20:03;63002.50;;;5.39;100.00
21879;BME280;27908;42.708;23.278;2023-04-08T05:22:29;63097.22;;;5.57;98.89
21879;BME280;27908;42.708;23.278;2023-04-08T05:24:54;63087.28;;;5.69;98.79
21879;BME280;27908;42.708;23.278;2023-04-08T05:27:20;63151.13;;;5.80;98.95
21879;BME280;27908;42.708;23.278;2023-04-08T05:29:46;63079.97;;;5.92;97.87
21879;BME280;27908;42.708;23.278;2023-04-08T05:32:12;63187.22;;;5.95;97.94
21879;BME280;27908;42.708;23.278;2023-04-08T05:34:37;63149.09;;;6.19;96.84
21879;BME280;27908;42.708;23.278;2023-04-08T05:37:02;63156.59;;;6.12;96.34
21879;BME280;27908;42.708;23.278;2023-04-08T05:39:28;63137.44;;;6.18;93.65
21879;BME280;27908;42.708;23.278;2023-04-08T05:41:53;63153.69;;;6.21;91.66
21879;BME280;27908;42.708;23.278;2023-04-08T05:44:19;63133.53;;;6.29;91.93
21879;BME280;27908;42.708;23.278;2023-04-08T05:46:44;63184.78;;;6.39;93.49
21879;BME280;27908;42.708;23.278;2023-04-08T05:49:10;63156.47;;;6.43;92.79
21879;BME280;27908;42.708;23.278;2023-04-08T05:51:36;63189.50;;;6.53;91.93
21879;BME280;27908;42.708;23.278;2023-04-08T05:54:01;63246.38;;;6.69;91.58
21879;BME280;27908;42.708;23.278;2023-04-08T05:56:27;63208.44;;;6.72;90.34
21879;BME280;27908;42.708;23.278;2023-04-08T05:58:52;63208.84;;;6.62;88.91
21879;BME280;27908;42.708;23.278;2023-04-08T06:01:18;63198.25;;;6.67;89.88
21879;BME280;27908;42.708;23.278;2023-04-08T06:03:43;63227.81;;;6.83;88.91
21879;BME280;27908;42.708;23.278;2023-04-08T06:06:11;63181.09;;;6.70;87.90
21879;BME280;27908;42.708;23.278;2023-04-08T06:08:36;63230.91;;;6.86;88.02
21879;BME280;27908;42.708;23.278;2023-04-08T06:11:02;63267.06;;;7.04;88.15
21879;BME280;27908;42.708;23.278;2023-04-08T06:13:30;63310.75;;;7.11;86.57
21879;BME280;27908;42.708;23.278;2023-04-08T06:15:56;63228.19;;;7.12;86.07
21879;BME280;27908;42.708;23.278;2023-04-08T06:18:21;63253.06;;;7.19;86.16
21879;BME280;27908;42.708;23.278;2023-04-08T06:20:47;63278.06;;;7.31;84.88
21879;BME280;27908;42.708;23.278;2023-04-08T06:23:12;63334.91;;;7.40;85.18
21879;BME280;27908;42.708;23.278;2023-04-08T06:25:38;63286.63;;;7.30;84.42
21879;BME280;27908;42.708;23.278;2023-04-08T06:28:03;63263.78;;;7.25;84.36
21879;BME280;27908;42.708;23.278;2023-04-08T06:30:29;63339.59;;;7.49;85.57
21879;BME280;27908;42.708;23.278;2023-04-08T06:32:54;63328.63;;;7.63;85.31
21879;BME280;27908;42.708;23.278;2023-04-08T06:35:20;63344.78;;;7.59;82.42
21879;BME280;27908;42.708;23.278;2023-04-08T06:37:45;63338.41;;;7.75;81.40
21879;BME280;27908;42.708;23.278;2023-04-08T06:40:11;63322.09;;;7.69;81.23
21879;BME280;27908;42.708;23.278;2023-04-08T06:42:36;63381.19;;;7.89;81.48
21879;BME280;27908;42.708;23.278;2023-04-08T06:45:07;63397.84;;;8.24;82.54
21879;BME280;27908;42.708;23.278;2023-04-08T06:47:33;63410.34;;;8.53;80.57
21879;BME280;27908;42.708;23.278;2023-04-08T06:49:58;63463.28;;;8.63;78.92
21879;BME280;27908;42.708;23.278;2023-04-08T06:52:23;63469.00;;;8.73;77.92
21879;BME280;27908;42.708;23.278;2023-04-08T06:54:49;63480.28;;;8.82;77.76
21879;BME280;27908;42.708;23.278;2023-04-08T06:57:15;63474.81;;;8.93;76.42
21879;BME280;27908;42.708;23.278;2023-04-08T06:59:40;63510.88;;;8.91;76.42
21879;BME280;27908;42.708;23.278;2023-04-08T07:02:05;63477.34;;;8.91;77.36
21879;BME280;27908;42.708;23.278;2023-04-08T07:04:31;63458.94;;;8.81;77.71
21879;BME280;27908;42.708;23.278;2023-04-08T07:06:56;63472.34;;;8.98;76.31
21879;BME280;27908;42.708;23.278;2023-04-08T07:09:22;63481.41;;;8.92;77.47
21879;BME280;27908;42.708;23.278;2023-04-08T07:11:47;63457.13;;;9.03;78.61
21879;BME280;27908;42.708;23.278;2023-04-08T07:14:12;63536.50;;;9.09;78.43
21879;BME280;27908;42.708;23.278;2023-04-08T07:16:38;63530.53;;;9.22;78.66
21879;BME280;27908;42.708;23.278;2023-04-08T07:19:03;63582.78;;;9.53;78.16
21879;BME280;27908;42.708;23.278;2023-04-08T07:21:29;63593.69;;;9.73;75.50
21879;BME280;27908;42.708;23.278;2023-04-08T07:23:55;63575.28;;;9.65;74.89
21879;BME280;27908;42.708;23.278;2023-04-08T07:26:21;63588.03;;;9.68;76.15
21879;BME280;27908;42.708;23.278;2023-04-08T07:28:46;63576.41;;;9.76;76.17
21879;BME280;27908;42.708;23.278;2023-04-08T07:31:14;63629.88;;;9.79;74.60
21879;BME280;27908;42.708;23.278;2023-04-08T07:33:41;63615.69;;;9.82;74.23
21879;BME280;27908;42.708;23.278;2023-04-08T07:36:08;63708.16;;;9.71;72.58
21879;BME280;27908;42.708;23.278;2023-04-08T07:38:34;63588.16;;;9.78;74.53
21879;BME280;27908;42.708;23.278;2023-04-08T07:41:00;63609.47;;;9.74;74.47
21879;BME280;27908;42.708;23.278;2023-04-08T07:43:25;63615.09;;;9.77;71.86
21879;BME280;27908;42.708;23.278;2023-04-08T07:45:51;63614.44;;;9.64;72.38
21879;BME280;27908;42.708;23.278;2023-04-08T07:48:17;63587.19;;;9.82;73.79
21879;BME280;27908;42.708;23.278;2023-04-08T07:50:42;63635.59;;;9.89;72.00
21879;BME280;27908;42.708;23.278;2023-04-08T07:53:09;63605.16;;;9.94;73.82
21879;BME280;27908;42.708;23.278;2023-04-08T07:55:35;63630.66;;;10.01;73.82
21879;BME280;27908;42.708;23.278;2023-04-08T07:58:01;63647.94;;;9.96;73.31
21879;BME280;27908;42.708;23.278;2023-04-08T08:00:26;63662.97;;;10.20;77.22
21879;BME280;27908;42.708;23.278;2023-04-08T08:02:54;63640.97;;;10.11;72.08
21879;BME280;27908;42.708;23.278;2023-04-08T08:05:20;63680.66;;;10.08;74.43
21879;BME280;27908;42.708;23.278;2023-04-08T08:07:45;63659.88;;;10.17;74.57
21879;BME280;27908;42.708;23.278;2023-04-08T08:10:11;63659.47;;;10.27;73.84
21879;BME280;27908;42.708;23.278;2023-04-08T08:12:36;63628.22;;;10.11;72.61
21879;BME280;27908;42.708;23.278;2023-04-08T08:15:02;63657.31;;;10.17;73.33
21879;BME280;27908;42.708;23.278;2023-04-08T08:17:28;63664.94;;;10.15;72.84
21879;BME280;27908;42.708;23.278;2023-04-08T08:19:55;63636.78;;;10.00;74.29
21879;BME280;27908;42.708;23.278;2023-04-08T08:22:21;63582.09;;;9.84;75.48
21879;BME280;27908;42.708;23.278;2023-04-08T08:24:46;63590.63;;;9.73;78.19
21879;BME280;27908;42.708;23.278;2023-04-08T08:27:12;63659.81;;;10.10;79.13
21879;BME280;27908;42.708;23.278;2023-04-08T08:29:37;63674.44;;;10.46;78.13
21879;BME280;27908;42.708;23.278;2023-04-08T08:32:03;63718.50;;;10.66;73.25
21879;BME280;27908;42.708;23.278;2023-04-08T08:34:29;63728.88;;;10.83;71.94
21879;BME280;27908;42.708;23.278;2023-04-08T08:36:54;63806.03;;;10.99;71.09
21879;BME280;27908;42.708;23.278;2023-04-08T08:39:20;63790.00;;;11.22;70.25
21879;BME280;27908;42.708;23.278;2023-04-08T08:41:46;63810.97;;;11.28;70.77
21879;BME280;27908;42.708;23.278;2023-04-08T08:44:12;63766.38;;;11.09;68.28
21879;BME280;27908;42.708;23.278;2023-04-08T08:46:42;63787.88;;;11.15;69.00
21879;BME280;27908;42.708;23.278;2023-04-08T08:49:08;63779.81;;;11.25;70.80
21879;BME280;27908;42.708;23.278;2023-04-08T08:51:34;63825.38;;;11.39;68.72
21879;BME280;27908;42.708;23.278;2023-04-08T08:54:03;63822.25;;;11.34;68.88
21879;BME280;27908;42.708;23.278;2023-04-08T08:56:28;63865.03;;;11.70;69.74
21879;BME280;27908;42.708;23.278;2023-04-08T08:58:54;63880.91;;;11.75;65.75
21879;BME280;27908;42.708;23.278;2023-04-08T09:01:40;63901.47;;;11.85;65.44
21879;BME280;27908;42.708;23.278;2023-04-08T09:04:16;63903.75;;;12.07;66.93
21879;BME280;27908;42.708;23.278;2023-04-08T09:06:48;63874.84;;;11.81;67.81
21879;BME280;27908;42.708;23.278;2023-04-08T09:09:18;63926.53;;;11.89;67.78
21879;BME280;27908;42.708;23.278;2023-04-08T09:11:45;63876.56;;;11.98;67.04
21879;BME280;27908;42.708;23.278;2023-04-08T09:14:23;63938.56;;;12.13;66.28
21879;BME280;27908;42.708;23.278;2023-04-08T09:16:50;63971.94;;;12.28;65.87
21879;BME280;27908;42.708;23.278;2023-04-08T09:19:16;63939.09;;;12.18;63.92
21879;BME280;27908;42.708;23.278;2023-04-08T09:21:41;63940.25;;;12.29;65.95
21879;BME280;27908;42.708;23.278;2023-04-08T09:24:08;63925.47;;;12.35;64.67
21879;BME280;27908;42.708;23.278;2023-04-08T09:26:35;63962.47;;;12.50;63.94
21879;BME280;27908;42.708;23.278;2023-04-08T09:29:08;64037.47;;;12.80;63.72
21879;BME280;27908;42.708;23.278;2023-04-08T09:31:36;64061.72;;;12.99;64.61
21879;BME280;27908;42.708;23.278;2023-04-08T09:36:35;64035.50;;;12.88;61.88
21879;BME280;27908;42.708;23.278;2023-04-08T09:39:00;64066.75;;;12.91;63.19
21879;BME280;27908;42.708;23.278;2023-04-08T09:41:27;64099.47;;;13.35;63.93
21879;BME280;27908;42.708;23.278;2023-04-08T09:43:54;64104.38;;;13.64;61.58
21879;BME280;27908;42.708;23.278;2023-04-08T09:46:30;64192.19;;;13.84;61.68
21879;BME280;27908;42.708;23.278;2023-04-08T09:49:04;64163.22;;;14.05;59.22
21879;BME280;27908;42.708;23.278;2023-04-08T09:51:34;64224.78;;;14.08;58.20
21879;BME280;27908;42.708;23.278;2023-04-08T09:54:02;64181.13;;;14.00;59.80
21879;BME280;27908;42.708;23.278;2023-04-08T09:56:38;64235.09;;;14.15;57.59
21879;BME280;27908;42.708;23.278;2023-04-08T09:59:12;64174.25;;;13.82;58.33
21879;BME280;27908;42.708;23.278;2023-04-08T10:01:44;64133.63;;;13.70;58.37
21879;BME280;27908;42.708;23.278;2023-04-08T10:04:14;64198.91;;;13.88;60.29
21879;BME280;27908;42.708;23.278;2023-04-08T10:06:41;64197.47;;;13.99;58.22
21879;BME280;27908;42.708;23.278;2023-04-08T10:09:07;64178.75;;;13.71;58.65
21879;BME280;27908;42.708;23.278;2023-04-08T10:11:33;64133.00;;;13.57;58.72
21879;BME280;27908;42.708;23.278;2023-04-08T10:14:00;64153.38;;;13.47;58.81
21879;BME280;27908;42.708;23.278;2023-04-08T10:16:27;64162.84;;;13.71;57.66
21879;BME280;27908;42.708;23.278;2023-04-08T10:18:54;64170.03;;;13.73;57.52
21879;BME280;27908;42.708;23.278;2023-04-08T10:21:50;64213.75;;;13.85;58.54
21879;BME280;27908;42.708;23.278;2023-04-08T10:24:15;64193.31;;;13.95;58.23
21879;BME280;27908;42.708;23.278;2023-04-08T10:26:45;64251.78;;;14.41;57.63
21879;BME280;27908;42.708;23.278;2023-04-08T10:31:49;64246.41;;;14.19;56.96
21879;BME280;27908;42.708;23.278;2023-04-08T10:34:22;64246.44;;;14.21;57.87
21879;BME280;27908;42.708;23.278;2023-04-08T10:36:49;64276.47;;;14.47;57.97
21879;BME280;27908;42.708;23.278;2023-04-08T10:39:15;64303.91;;;14.71;56.40
21879;BME280;27908;42.708;23.278;2023-04-08T10:41:49;64298.06;;;14.51;56.28
21879;BME280;27908;42.708;23.278;2023-04-08T10:46:45;64301.19;;;14.56;57.34
21879;BME280;27908;42.708;23.278;2023-04-08T10:49:13;64326.38;;;14.58;55.64
21879;BME280;27908;42.708;23.278;2023-04-08T10:51:39;64270.19;;;14.36;56.42
21879;BME280;27908;42.708;23.278;2023-04-08T10:54:07;64249.59;;;14.29;56.29
21879;BME280;27908;42.708;23.278;2023-04-08T10:56:34;64299.56;;;14.47;55.19
21879;BME280;27908;42.708;23.278;2023-04-08T10:59:00;64353.75;;;14.77;55.47
21879;BME280;27908;42.708;23.278;2023-04-08T11:01:25;64345.63;;;14.84;56.09
21879;BME280;27908;42.708;23.278;2023-04-08T11:03:51;64327.63;;;14.79;54.77
21879;BME280;27908;42.708;23.278;2023-04-08T11:06:17;64330.72;;;14.82;54.44
21879;BME280;27908;42.708;23.278;2023-04-08T11:08:44;64353.94;;;14.92;53.37
21879;BME280;27908;42.708;23.278;2023-04-08T11:11:09;64322.03;;;14.86;53.84
21879;BME280;27908;42.708;23.278;2023-04-08T11:13:41;64376.63;;;15.01;53.54
21879;BME280;27908;42.708;23.278;2023-04-08T11:16:07;64343.03;;;14.81;52.53
21879;BME280;27908;42.708;23.278;2023-04-08T11:18:34;64301.13;;;14.51;54.15
21879;BME280;27908;42.708;23.278;2023-04-08T11:20:59;64335.69;;;14.67;54.07
21879;BME280;27908;42.708;23.278;2023-04-08T11:23:26;64277.31;;;14.80;53.36
21879;BME280;27908;42.708;23.278;2023-04-08T11:25:52;64305.72;;;14.97;52.67
21879;BME280;27908;42.708;23.278;2023-04-08T11:28:18;64373.16;;;15.12;55.17
21879;BME280;27908;42.708;23.278;2023-04-08T11:30:44;64449.59;;;15.51;52.63
21879;BME280;27908;42.708;23.278;2023-04-08T11:33:12;64506.41;;;15.75;53.37
21879;BME280;27908;42.708;23.278;2023-04-08T11:35:42;64575.09;;;15.99;51.69
21879;BME280;27908;42.708;23.278;2023-04-08T11:38:09;64548.38;;;16.03;51.16
21879;BME280;27908;42.708;23.278;2023-04-08T11:40:35;64602.78;;;16.33;49.74
21879;BME280;27908;42.708;23.278;2023-04-08T11:43:11;64576.69;;;16.05;49.65
21879;BME280;27908;42.708;23.278;2023-04-08T11:45:38;64517.56;;;16.05;50.91
21879;BME280;27908;42.708;23.278;2023-04-08T11:48:11;64542.59;;;15.90;49.21
21879;BME280;27908;42.708;23.278;2023-04-08T11:50:36;64510.78;;;15.97;49.91
21879;BME280;27908;42.708;23.278;2023-04-08T11:53:02;64535.41;;;15.93;49.55
21879;BME280;27908;42.708;23.278;2023-04-08T11:55:31;64570.59;;;16.12;50.27
21879;BME280;27908;42.708;23.278;2023-04-08T11:58:04;64560.22;;;16.02;48.50
21879;BME280;27908;42.708;23.278;2023-04-08T12:00:31;64587.44;;;16.01;49.47
21879;BME280;27908;42.708;23.278;2023-04-08T12:02:57;64623.16;;;16.18;48.60
21879;BME280;27908;42.708;23.278;2023-04-08T12:05:22;64552.47;;;16.00;49.27
21879;BME280;27908;42.708;23.278;2023-04-08T12:07:48;64482.25;;;15.74;47.67
21879;BME280;27908;42.708;23.278;2023-04-08T12:10:13;64448.00;;;15.44;48.81
21879;BME280;27908;42.708;23.278;2023-04-08T12:12:39;64474.56;;;15.33;50.10
21879;BME280;27908;42.708;23.278;2023-04-08T12:15:06;64451.97;;;15.31;50.78
21879;BME280;27908;42.708;23.278;2023-04-08T12:17:32;64419.09;;;15.31;50.08
21879;BME280;27908;42.708;23.278;2023-04-08T12:19:58;64391.03;;;15.05;50.79
21879;BME280;27908;42.708;23.278;2023-04-08T12:22:24;64369.63;;;15.19;50.54
21879;BME280;27908;42.708;23.278;2023-04-08T12:27:29;64318.31;;;14.72;50.54
21879;BME280;27908;42.708;23.278;2023-04-08T12:29:54;64353.75;;;14.74;50.63
21879;BME280;27908;42.708;23.278;2023-04-08T12:32:20;64332.28;;;14.86;51.09
21879;BME280;27908;42.708;23.278;2023-04-08T12:34:46;64311.38;;;14.49;50.45
21879;BME280;27908;42.708;23.278;2023-04-08T12:37:12;64272.19;;;14.31;52.37
21879;BME280;27908;42.708;23.278;2023-04-08T12:39:37;64287.78;;;14.48;51.63
21879;BME280;27908;42.708;23.278;2023-04-08T12:42:03;64245.94;;;14.23;52.41
21879;BME280;27908;42.708;23.278;2023-04-08T12:44:29;64191.81;;;13.96;52.55
21879;BME280;27908;42.708;23.278;2023-04-08T12:46:54;64150.47;;;13.64;53.55
21879;BME280;27908;42.708;23.278;2023-04-08T12:49:20;64140.63;;;13.52;53.68
21879;BME280;27908;42.708;23.278;2023-04-08T12:51:46;64128.47;;;13.65;53.77
21879;BME280;27908;42.708;23.278;2023-04-08T12:54:11;64199.63;;;13.62;55.04
21879;BME280;27908;42.708;23.278;2023-04-08T12:56:37;64162.75;;;13.61;55.17
21879;BME280;27908;42.708;23.278;2023-04-08T12:59:03;64199.56;;;13.57;54.96
21879;BME280;27908;42.708;23.278;2023-04-08T13:01:28;64133.91;;;13.48;55.44
21879;BME280;27908;42.708;23.278;2023-04-08T13:03:55;64145.09;;;13.42;54.91
21879;BME280;27908;42.708;23.278;2023-04-08T13:06:20;64112.66;;;13.23;56.89
21879;BME280;27908;42.708;23.278;2023-04-08T13:08:46;64115.78;;;13.28;59.40